createdAt,value
2018-02-06T00:01:56.894Z,24.55
2018-02-06T00:04:24.401Z,24.95
2018-02-06T00:06:51.946Z,28.60
2018-02-06T00:09:19.453Z,30.58
2018-02-06T00:11:46.992Z,26.40
2018-02-06T00:14:14.495Z,29.05
2018-02-06T00:16:42.045Z,31.75
2018-02-06T00:19:09.582Z,26.20
2018-02-06T00:21:37.866Z,27.10
2018-02-06T00:24:06.133Z,32.72
2018-02-06T00:26:34.419Z,33.53
2018-02-06T00:29:02.690Z,29.52
2018-02-06T00:31:30.977Z,29.85
2018-02-06T00:33:59.245Z,27.92
2018-02-06T00:36:27.557Z,33.70
2018-02-06T00:38:55.064Z,26.10
2018-02-06T00:41:22.611Z,32.33
2018-02-06T00:43:50.129Z,39.35
2018-02-06T00:46:17.630Z,27.02
2018-02-06T00:48:45.159Z,28.48
2018-02-06T00:51:12.670Z,27.77
2018-02-06T00:53:40.958Z,28.85
2018-02-06T00:56:09.230Z,30.60
2018-02-06T00:58:37.527Z,34.65
2018-02-06T01:01:05.046Z,26.40
2018-02-06T01:03:32.569Z,30.98
2018-02-06T01:06:00.070Z,28.58
2018-02-06T01:08:27.594Z,30.15
2018-02-06T01:10:55.093Z,29.12
2018-02-06T01:13:23.377Z,28.70
2018-02-06T01:15:51.674Z,26.33
2018-02-06T01:18:19.193Z,31.85
2018-02-06T01:20:46.694Z,26.67
2018-02-06T01:23:14.221Z,33.88
2018-02-06T01:25:41.721Z,31.95
2018-02-06T01:28:10.184Z,30.85
2018-02-06T01:30:37.709Z,32.95
2018-02-06T01:33:05.252Z,27.77
2018-02-06T01:35:32.761Z,27.75
2018-02-06T01:38:01.046Z,35.75
2018-02-06T01:40:28.573Z,32.30
2018-02-06T01:42:56.078Z,26.87
2018-02-06T01:45:23.618Z,31.98
2018-02-06T01:47:51.129Z,27.13
2018-02-06T01:50:18.650Z,26.12
2018-02-06T01:52:46.153Z,30.23
2018-02-06T01:55:13.673Z,32.72
2018-02-06T01:57:41.183Z,32.30
2018-02-06T02:00:08.709Z,31.12
2018-02-06T02:02:36.225Z,27.90
2018-02-06T02:05:03.757Z,31.98
2018-02-06T02:07:31.258Z,28.12
2018-02-06T02:09:58.783Z,33.35
2018-02-06T02:12:26.296Z,29.30
2018-02-06T02:14:53.813Z,33.22
2018-02-06T02:17:22.089Z,29.17
2018-02-06T02:19:50.393Z,30.60
2018-02-06T02:22:17.906Z,33.45
2018-02-06T02:24:45.440Z,27.45
2018-02-06T02:27:12.949Z,29.83
2018-02-06T02:29:41.233Z,32.53
2018-02-06T02:32:09.512Z,33.22
2018-02-06T02:34:37.072Z,31.10
2018-02-06T02:37:05.322Z,33.55
2018-02-06T02:39:32.859Z,29.48
2018-02-06T04:40:08.670Z,32.17
2018-02-06T04:42:36.958Z,32.47
2018-02-06T04:45:04.471Z,38.80
2018-02-06T04:47:32.030Z,39.20
2018-02-06T04:49:59.532Z,40.85
2018-02-06T04:52:27.070Z,40.70
2018-02-06T04:54:54.582Z,32.30
2018-02-06T04:57:22.894Z,42.83
2018-02-06T04:59:50.403Z,34.28
2018-02-06T05:02:18.698Z,38.42
2018-02-06T05:04:46.198Z,32.80
2018-02-06T05:07:13.722Z,37.00
2018-02-06T05:09:41.262Z,39.45
2018-02-06T05:12:08.783Z,38.10
2018-02-06T05:14:37.073Z,35.60
2018-02-06T05:17:07.297Z,36.45
2018-02-06T05:19:35.600Z,32.85
2018-02-06T05:22:03.108Z,34.20
2018-02-06T05:24:30.634Z,35.28
2018-02-06T05:26:58.133Z,34.22
2018-02-06T05:29:26.446Z,38.90
2018-02-06T05:31:53.950Z,39.60
2018-02-06T05:34:21.477Z,38.47
2018-02-06T05:36:48.993Z,34.90
2018-02-06T05:39:17.298Z,37.42
2018-02-06T05:41:44.819Z,34.05
2018-02-06T05:44:12.350Z,39.17
2018-02-06T05:46:39.865Z,35.47
2018-02-06T05:49:08.152Z,37.72
2018-02-06T05:51:35.669Z,39.70
2018-02-06T05:54:03.224Z,39.05
2018-02-06T05:56:30.730Z,37.63
2018-02-06T05:58:58.267Z,40.47
2018-02-06T06:01:26.549Z,39.58
2018-02-06T06:03:54.874Z,36.60
2018-02-06T06:06:22.398Z,34.50
2018-02-06T06:08:50.680Z,37.00
2018-02-06T06:11:18.184Z,36.95
2018-02-06T06:13:45.753Z,38.35
2018-02-06T06:16:13.270Z,42.42
2018-02-06T06:18:40.781Z,35.63
2018-02-06T06:21:08.306Z,40.17
2018-02-06T06:23:35.850Z,35.90
2018-02-06T06:26:03.369Z,37.72
2018-02-06T06:28:31.657Z,39.88
2018-02-06T06:30:59.974Z,37.03
2018-02-06T06:33:27.488Z,42.10
2018-02-06T06:35:55.053Z,42.30
2018-02-06T06:38:23.322Z,42.22
2018-02-06T06:40:51.623Z,40.75
2018-02-06T06:43:19.141Z,40.00
2018-02-06T06:45:46.674Z,43.58
2018-02-06T06:48:14.185Z,41.83
2018-02-06T06:50:42.486Z,47.45
2018-02-06T06:53:09.993Z,44.92
2018-02-06T06:55:37.521Z,43.33
2018-02-06T06:58:05.792Z,43.90
2018-02-06T07:00:33.332Z,42.47
2018-02-06T07:03:00.841Z,45.12
2018-02-06T07:05:28.348Z,41.03
2018-02-06T07:07:55.877Z,45.65
2018-02-06T07:10:23.433Z,41.25
2018-02-06T07:12:50.960Z,43.60
2018-02-06T07:15:18.507Z,40.67
2018-02-06T07:17:46.029Z,38.80
2018-02-06T07:20:14.302Z,41.75
2018-02-06T07:22:42.593Z,42.92
2018-02-06T07:25:10.857Z,42.03
2018-02-06T07:27:39.181Z,40.28
2018-02-06T07:30:06.698Z,43.75
2018-02-06T07:32:34.995Z,45.12
2018-02-06T07:35:02.494Z,42.13
2018-02-06T07:37:30.113Z,42.83
2018-02-06T07:39:57.617Z,42.35
2018-02-06T07:42:25.145Z,42.00
2018-02-06T07:44:52.687Z,40.25
2018-02-06T07:47:20.221Z,42.78
2018-02-06T07:49:48.497Z,40.22
2018-02-06T07:52:16.797Z,39.53
2018-02-06T07:54:44.331Z,38.25
2018-02-06T07:57:11.842Z,42.90
2018-02-06T07:59:39.371Z,53.83
2018-02-06T08:02:06.882Z,45.25
2018-02-06T08:04:34.413Z,46.30
2018-02-06T08:07:02.105Z,43.10
2018-02-06T08:09:29.641Z,41.67
2018-02-06T08:11:57.199Z,43.20
2018-02-06T08:14:24.758Z,52.50
2018-02-06T08:16:52.272Z,44.10
2018-02-06T08:19:20.602Z,38.00
2018-02-06T08:21:48.129Z,47.45
2018-02-06T08:24:16.421Z,43.45
2018-02-06T08:26:43.946Z,38.55
2018-02-06T08:29:11.469Z,46.22
2018-02-06T08:31:38.973Z,49.20
2018-02-06T08:34:07.264Z,43.65
2018-02-06T08:36:34.769Z,43.22
2018-02-06T08:39:02.322Z,49.28
2018-02-06T08:41:29.829Z,50.63
2018-02-06T08:43:58.098Z,45.38
2018-02-06T08:46:26.406Z,44.83
2018-02-06T08:48:53.924Z,44.47
2018-02-06T08:51:21.461Z,47.88
2018-02-06T08:53:48.963Z,44.20
2018-02-06T08:56:17.258Z,41.37
2018-02-06T08:58:45.533Z,40.72
2018-02-06T09:01:13.057Z,46.65
2018-02-06T09:03:40.563Z,39.35
2018-02-06T09:06:08.158Z,41.67
2018-02-06T09:08:35.686Z,40.15
2018-02-06T09:11:03.210Z,41.70
2018-02-06T09:13:31.478Z,50.50
2018-02-06T09:15:59.001Z,41.78
2018-02-06T09:18:26.515Z,42.70
2018-02-06T09:20:54.802Z,45.25
2018-02-06T09:23:22.330Z,42.13
2018-02-06T09:25:50.670Z,41.08
2018-02-06T09:28:18.216Z,40.42
2018-02-06T09:30:45.757Z,44.85
2018-02-06T09:33:13.278Z,44.72
2018-02-06T09:35:40.838Z,44.33
2018-02-06T09:38:08.364Z,43.45
2018-02-06T09:40:35.871Z,44.10
2018-02-06T09:43:03.394Z,40.83
2018-02-06T09:45:30.952Z,37.60
2018-02-06T09:47:58.525Z,40.15
2018-02-06T09:50:26.038Z,40.05
2018-02-06T09:52:53.562Z,38.00
2018-02-06T09:55:21.082Z,41.42
2018-02-06T09:57:48.630Z,55.80
2018-02-06T10:00:16.126Z,41.53
2018-02-06T10:02:43.656Z,48.63
2018-02-06T10:05:11.161Z,42.75
2018-02-06T10:07:38.724Z,39.58
2018-02-06T10:10:07.012Z,43.20
2018-02-06T10:12:34.534Z,38.25
2018-02-06T10:15:02.068Z,40.70
2018-02-06T10:17:29.575Z,38.80
2018-02-06T10:19:57.090Z,40.10
2018-02-06T10:22:24.590Z,40.58
2018-02-06T10:24:52.159Z,38.17
2018-02-06T10:27:19.658Z,43.10
2018-02-06T10:29:47.181Z,39.85
2018-02-06T10:32:15.461Z,36.70
2018-02-06T10:34:43.749Z,38.85
2018-02-06T10:37:11.254Z,39.97
2018-02-06T10:39:38.781Z,41.92
2018-02-06T10:42:06.285Z,46.17
2018-02-06T10:44:33.822Z,43.28
2018-02-06T10:47:01.337Z,42.58
2018-02-06T10:49:29.624Z,49.45
2018-02-06T10:51:57.138Z,46.28
2018-02-06T10:54:24.659Z,40.88
2018-02-06T10:56:52.162Z,37.17
2018-02-06T10:59:20.453Z,44.20
2018-02-06T11:01:47.985Z,40.20
2018-02-06T11:04:15.515Z,40.22
2018-02-06T11:06:43.046Z,38.72
2018-02-06T11:09:11.320Z,41.70
2018-02-06T11:11:39.613Z,47.97
2018-02-06T11:14:07.113Z,36.65
2018-02-06T11:16:34.635Z,38.80
2018-02-06T11:19:02.134Z,41.35
2018-02-06T11:21:29.653Z,36.78
2018-02-06T11:23:57.158Z,37.75
2018-02-06T11:26:24.678Z,40.05
2018-02-06T11:28:52.179Z,40.97
2018-02-06T11:31:19.718Z,35.63
2018-02-06T11:33:47.222Z,39.53
2018-02-06T11:36:15.513Z,42.33
2018-02-06T11:38:43.781Z,37.00
2018-02-06T11:41:12.074Z,41.03
2018-02-06T11:43:39.572Z,34.53
2018-02-06T11:46:07.077Z,37.92
2018-02-06T11:48:35.370Z,39.95
2018-02-06T11:51:02.971Z,40.70
2018-02-06T11:53:30.566Z,36.55
2018-02-06T11:55:58.146Z,38.58
2018-02-06T11:58:26.434Z,38.70
2018-02-06T12:00:53.946Z,37.08
2018-02-06T12:03:21.474Z,40.83
2018-02-06T12:05:48.977Z,36.78
2018-02-06T12:08:16.584Z,34.00
2018-02-06T12:10:44.087Z,33.45
2018-02-06T12:13:11.615Z,32.85
2018-02-06T12:15:39.117Z,34.00
2018-02-06T12:18:07.449Z,30.37
2018-02-06T12:20:34.962Z,31.12
2018-02-06T12:23:03.232Z,30.83
2018-02-06T12:25:30.754Z,33.47
2018-02-06T12:27:58.336Z,32.20
2018-02-06T12:30:25.861Z,30.17
2018-02-06T12:32:53.362Z,29.70
2018-02-06T12:35:20.898Z,32.28
2018-02-06T12:37:48.434Z,30.83
2018-02-06T12:40:15.962Z,32.78
2018-02-06T12:42:44.237Z,33.25
2018-02-06T12:45:12.538Z,33.53
2018-02-06T12:47:40.042Z,30.75
2018-02-06T12:50:07.575Z,31.08
2018-02-06T12:52:35.090Z,29.95
2018-02-06T12:55:03.405Z,34.13
2018-02-06T12:57:30.967Z,30.23
2018-02-06T12:59:58.501Z,33.17
2018-02-06T13:02:26.015Z,34.20
2018-02-06T13:04:55.122Z,31.08
2018-02-06T13:07:22.646Z,30.55
2018-02-06T13:09:50.148Z,29.70
2018-02-06T13:12:17.687Z,29.33
2018-02-06T13:14:45.189Z,31.73
2018-02-06T13:17:12.713Z,30.00
2018-02-06T13:19:40.233Z,34.80
2018-02-06T13:22:07.769Z,32.05
2018-02-06T13:24:36.042Z,32.50
2018-02-06T13:27:04.392Z,35.75
2018-02-06T13:29:31.881Z,33.30
2018-02-06T13:31:59.408Z,34.40
2018-02-06T13:34:26.921Z,31.70
2018-02-06T13:36:54.457Z,33.20
2018-02-06T13:39:21.970Z,35.13
2018-02-06T13:41:49.498Z,35.97
2018-02-06T13:44:17.002Z,35.80
2018-02-06T13:46:44.546Z,32.60
2018-02-06T13:49:12.077Z,36.22
2018-02-06T13:51:39.587Z,34.45
2018-02-06T13:54:07.113Z,29.65
2018-02-06T13:56:34.621Z,33.80
2018-02-06T13:59:02.932Z,36.85
2018-02-06T14:01:30.467Z,35.10
2018-02-06T14:03:58.785Z,34.63
2018-02-06T14:06:26.302Z,33.42
2018-02-06T14:08:54.610Z,32.15
2018-02-06T14:11:22.129Z,35.30
2018-02-06T14:13:50.434Z,37.17
2018-02-06T14:16:17.950Z,32.30
2018-02-06T14:18:45.475Z,34.35
2018-02-06T14:21:12.991Z,32.30
2018-02-06T14:23:41.363Z,46.78
2018-02-06T14:26:09.642Z,39.20
2018-02-06T14:28:37.923Z,32.13
2018-02-06T14:31:06.198Z,37.47
2018-02-06T14:33:38.907Z,35.28
2018-02-06T14:36:06.433Z,30.95
2018-02-06T14:38:34.713Z,31.15
2018-02-06T14:41:03.010Z,33.80
2018-02-06T14:43:30.550Z,35.50
2018-02-06T14:45:58.844Z,36.10
2018-02-06T14:48:26.350Z,34.00
2018-02-06T14:50:53.882Z,31.60
2018-02-06T14:53:22.162Z,34.65
2018-02-06T14:55:49.697Z,36.22
2018-02-06T14:58:17.201Z,34.55
2018-02-06T15:00:44.725Z,33.20
2018-02-06T15:03:12.237Z,32.22
2018-02-06T15:05:39.768Z,34.90
2018-02-06T15:08:07.269Z,26.92
2018-02-06T15:10:34.798Z,30.23
2018-02-06T15:13:02.323Z,33.15
2018-02-06T15:15:29.869Z,28.35
2018-02-06T15:17:57.397Z,34.47
2018-02-06T15:20:24.934Z,37.15
2018-02-06T15:22:52.461Z,27.10
2018-02-06T15:25:19.997Z,32.15
2018-02-06T15:27:49.036Z,29.80
2018-02-06T15:30:16.658Z,30.02
2018-02-06T15:32:47.490Z,27.70
2018-02-06T15:35:15.069Z,30.45
2018-02-06T15:37:42.625Z,30.62
2018-02-06T15:40:10.130Z,26.58
2018-02-06T15:42:37.678Z,29.83
2018-02-06T15:45:05.734Z,27.87
2018-02-06T15:47:34.300Z,31.70
2018-02-06T15:50:01.802Z,28.02
2018-02-06T15:52:29.322Z,29.12
2018-02-06T15:54:56.849Z,27.50
2018-02-06T15:57:24.383Z,34.90
2018-02-06T15:59:51.895Z,29.12
2018-02-06T16:02:19.422Z,28.45
2018-02-06T16:04:46.936Z,31.70
2018-02-06T16:07:14.470Z,29.00
2018-02-06T16:09:42.746Z,28.17
2018-02-06T16:12:11.045Z,28.73
2018-02-06T16:14:38.656Z,28.98
2018-02-06T16:17:06.185Z,25.30
2018-02-06T16:19:33.717Z,23.00
2018-02-06T16:22:01.234Z,28.10
2018-02-06T16:24:28.735Z,26.73
2018-02-06T16:26:56.264Z,23.17
2018-02-06T16:29:24.551Z,27.90
2018-02-06T16:31:52.830Z,28.90
2018-02-06T16:34:21.186Z,27.37
2018-02-06T16:36:48.704Z,30.37
2018-02-06T16:39:16.238Z,33.67
2018-02-06T16:41:43.737Z,30.52
2018-02-06T16:44:11.270Z,28.55
2018-02-06T16:46:38.775Z,31.23
2018-02-06T16:49:06.339Z,28.30
2018-02-06T16:51:33.972Z,33.38
2018-02-06T16:54:01.521Z,29.92
2018-02-06T16:56:29.057Z,32.95
2018-02-06T16:58:56.646Z,26.62
2018-02-06T17:01:24.159Z,29.87
2018-02-06T17:03:52.441Z,23.38
2018-02-06T17:06:20.709Z,28.95
2018-02-06T17:08:49.019Z,28.30
2018-02-06T17:11:16.508Z,24.92
2018-02-06T17:13:44.038Z,26.70
2018-02-06T17:16:11.561Z,28.92
2018-02-06T17:18:39.893Z,27.33
2018-02-06T17:21:07.398Z,30.40
2018-02-06T17:23:35.672Z,35.50
2018-02-06T17:26:03.199Z,31.50
2018-02-06T17:28:30.706Z,32.00
2018-02-06T17:30:58.991Z,29.83
2018-02-06T17:33:26.501Z,28.90
2018-02-06T17:35:54.034Z,32.47
2018-02-06T17:38:21.538Z,39.28
2018-02-06T17:40:49.073Z,30.37
2018-02-06T17:43:16.582Z,33.63
2018-02-06T17:45:44.862Z,30.45
2018-02-06T17:48:13.131Z,32.88
2018-02-06T17:50:41.426Z,37.15
2018-02-06T17:53:08.926Z,41.67
2018-02-06T17:55:36.438Z,35.00
2018-02-06T17:58:03.944Z,41.37
2018-02-06T18:00:31.458Z,42.42
2018-02-06T18:02:58.976Z,29.37
2018-02-06T18:05:26.590Z,39.30
2018-02-06T18:07:54.094Z,55.60
2018-02-06T18:10:21.632Z,43.80
2018-02-06T18:12:49.157Z,45.92
2018-02-06T18:15:16.832Z,41.35
2018-02-06T18:17:44.318Z,36.42
2018-02-06T18:20:11.840Z,43.42
2018-02-06T18:22:39.357Z,43.47
2018-02-06T18:25:06.869Z,57.35
2018-02-06T18:27:35.171Z,48.00
2018-02-06T18:30:02.678Z,50.85
2018-02-06T18:32:30.963Z,49.85
2018-02-06T18:34:58.495Z,39.15
2018-02-06T18:37:26.031Z,46.20
2018-02-06T18:39:53.546Z,36.28
2018-02-06T18:42:21.069Z,35.70
2018-02-06T18:44:48.570Z,38.38
2018-02-06T18:47:16.147Z,36.72
2018-02-06T18:49:43.657Z,40.75
2018-02-06T18:52:11.210Z,35.22
2018-02-06T18:54:38.710Z,35.50
2018-02-06T18:57:06.326Z,35.95
2018-02-06T18:59:33.825Z,38.70
2018-02-06T19:02:01.338Z,36.28
2018-02-06T19:04:31.044Z,43.60
2018-02-06T19:06:58.549Z,37.78
2018-02-06T19:09:26.834Z,36.25
2018-02-06T19:11:54.410Z,38.40
2018-02-06T19:14:21.954Z,40.50
2018-02-06T19:16:49.530Z,38.88
2018-02-06T19:19:17.071Z,38.70
2018-02-06T19:21:44.581Z,36.67
2018-02-06T19:24:12.098Z,36.83
2018-02-06T19:26:39.606Z,36.78
2018-02-06T19:29:07.130Z,35.47
2018-02-06T19:31:34.686Z,34.83
2018-02-06T19:34:03.087Z,39.63
2018-02-06T19:36:30.586Z,43.33
2018-02-06T19:38:58.970Z,51.50
2018-02-06T19:41:27.293Z,38.13
2018-02-06T19:43:54.874Z,45.38
2018-02-06T19:46:23.222Z,45.97
2018-02-06T19:48:50.790Z,42.45
2018-02-06T19:51:18.292Z,45.28
2018-02-06T19:53:46.636Z,53.97
2018-02-06T19:56:14.211Z,59.58
2018-02-06T19:58:41.848Z,52.65
2018-02-06T20:01:09.362Z,56.13
2018-02-06T20:03:37.637Z,57.75
2018-02-06T20:06:05.982Z,51.05
2018-02-06T20:08:33.485Z,52.00
2018-02-06T20:11:01.012Z,58.15
2018-02-06T20:13:28.521Z,54.03
2018-02-06T20:15:56.105Z,47.88
2018-02-06T20:18:23.646Z,60.47
2018-02-06T20:20:51.227Z,52.20
2018-02-06T20:23:18.741Z,50.55
2018-02-06T20:25:46.293Z,56.13
2018-02-06T20:28:13.822Z,57.05
2018-02-06T20:30:41.350Z,51.67
2018-02-06T20:33:08.913Z,42.83
2018-02-06T20:35:37.202Z,42.55
2018-02-06T20:38:04.727Z,37.97
2018-02-06T20:40:32.309Z,43.70
2018-02-06T20:43:00.602Z,43.05
2018-02-06T20:45:28.939Z,47.83
2018-02-06T20:47:56.465Z,42.67
2018-02-06T20:50:24.015Z,49.15
2018-02-06T20:52:51.592Z,39.75
2018-02-06T20:55:19.164Z,37.72
2018-02-06T20:57:46.834Z,37.10
2018-02-06T21:00:14.378Z,39.55
2018-02-06T21:02:41.897Z,42.75
2018-02-06T21:05:10.224Z,45.67
2018-02-06T21:07:37.738Z,41.40
2018-02-06T21:10:06.051Z,36.15
2018-02-06T21:12:33.947Z,40.60
2018-02-06T21:15:01.536Z,41.85
2018-02-06T21:17:29.842Z,45.88
2018-02-06T21:19:57.354Z,36.38
2018-02-06T21:22:24.973Z,35.50
2018-02-06T21:24:52.486Z,40.38
2018-02-06T21:27:20.828Z,37.55
2018-02-06T21:29:48.337Z,40.83
2018-02-06T21:32:15.881Z,41.55
2018-02-06T21:34:44.231Z,39.88
2018-02-06T21:37:11.737Z,43.10
2018-02-06T21:39:40.030Z,42.33
2018-02-06T21:42:07.586Z,41.13
2018-02-06T21:44:35.160Z,40.67
2018-02-06T21:47:02.723Z,33.55
2018-02-06T21:49:30.254Z,40.10
2018-02-06T21:51:58.580Z,35.00
2018-02-06T21:54:26.110Z,34.83
2018-02-06T21:56:53.663Z,33.70
2018-02-06T21:59:21.187Z,41.92
2018-02-06T22:01:48.709Z,36.92
2018-02-06T22:04:16.234Z,40.03
2018-02-06T22:06:44.557Z,33.97
2018-02-06T22:09:12.085Z,39.83
2018-02-06T22:11:39.595Z,42.90
2018-02-06T22:14:07.112Z,36.25
2018-02-06T22:16:34.629Z,35.03
2018-02-06T22:19:02.984Z,39.35
2018-02-06T22:21:30.505Z,39.67
2018-02-06T22:23:58.014Z,36.92
2018-02-06T22:26:25.540Z,41.78
2018-02-06T22:28:53.816Z,41.30
2018-02-06T22:31:21.340Z,40.42
2018-02-06T22:33:49.604Z,37.05
2018-02-06T22:36:17.988Z,39.75
2018-02-06T22:38:46.266Z,35.33
2018-02-06T22:41:14.574Z,40.33
2018-02-06T22:43:42.069Z,40.25
2018-02-06T22:46:09.588Z,33.47
2018-02-06T22:48:37.099Z,39.50
2018-02-06T22:51:05.410Z,42.42
2018-02-06T22:53:32.913Z,45.75
2018-02-06T22:56:00.439Z,47.17
2018-02-06T22:58:27.943Z,37.92
2018-02-06T23:00:55.465Z,43.33
2018-02-06T23:03:22.969Z,46.88
2018-02-06T23:05:50.555Z,45.25
2018-02-06T23:08:18.036Z,43.97
2018-02-06T23:10:45.610Z,40.63
2018-02-06T23:13:13.121Z,44.25
2018-02-06T23:15:41.397Z,47.97
2018-02-06T23:18:09.705Z,44.70
2018-02-06T23:20:37.211Z,40.83
2018-02-06T23:23:05.723Z,42.03
2018-02-06T23:25:34.020Z,50.95
2018-02-06T23:28:01.593Z,43.67
2018-02-06T23:30:29.097Z,41.55
2018-02-06T23:32:56.633Z,44.67
2018-02-06T23:35:24.142Z,43.42
2018-02-06T23:37:52.438Z,47.88
2018-02-06T23:40:19.953Z,37.40
2018-02-06T23:42:47.570Z,42.40
2018-02-06T23:45:15.066Z,48.15
2018-02-06T23:47:42.588Z,43.08
2018-02-06T23:50:10.148Z,45.30
2018-02-06T23:52:37.665Z,42.53
2018-02-06T23:55:05.194Z,46.67
2018-02-06T23:57:32.777Z,43.80
